sensor_id;sensor_type;location;lat;lon;timestamp;temperature;humidity
47921;DHT22;33686;48.770;9.186;2023-02-02T05:23:13;6.10;99.90
47921;DHT22;33686;48.770;9.186;2023-02-02T05:25:39;6.10;99.90
47921;DHT22;33686;48.770;9.186;2023-02-02T05:28:04;6.10;99.90
47921;DHT22;33686;48.770;9.186;2023-02-02T05:30:30;6.10;99.90
47921;DHT22;33686;48.770;9.186;2023-02-02T05:32:55;6.10;99.90
47921;DHT22;33686;48.770;9.186;2023-02-02T05:35:21;6.10;99.90
47921;DHT22;33686;48.770;9.186;2023-02-02T05:37:46;6.10;99.90
47921;DHT22;33686;48.770;9.186;2023-02-02T05:40:12;6.10;99.90
47921;DHT22;33686;48.770;9.186;2023-02-02T05:42:37;6.10;99.90
47921;DHT22;33686;48.770;9.186;2023-02-02T05:45:03;6.10;99.90
47921;DHT22;33686;48.770;9.186;2023-02-02T05:47:29;6.10;99.90
47921;DHT22;33686;48.770;9.186;2023-02-02T05:49:55;6.10;99.90
47921;DHT22;33686;48.770;9.186;2023-02-02T05:52:21;6.00;99.90
47921;DHT22;33686;48.770;9.186;2023-02-02T05:54:47;6.10;99.90
47921;DHT22;33686;48.770;9.186;2023-02-02T05:57:13;6.10;99.90
47921;DHT22;33686;48.770;9.186;2023-02-02T05:59:39;6.10;99.90
47921;DHT22;33686;48.770;9.186;2023-02-02T06:02:04;6.20;99.90
47921;DHT22;33686;48.770;9.186;2023-02-02T06:04:30;6.20;99.90
47921;DHT22;33686;48.770;9.186;2023-02-02T06:06:55;6.10;99.90
47921;DHT22;33686;48.770;9.186;2023-02-02T06:09:21;6.10;99.90
47921;DHT22;33686;48.770;9.186;2023-02-02T06:11:48;6.10;99.90
47921;DHT22;33686;48.770;9.186;2023-02-02T06:14:13;6.10;99.90
47921;DHT22;33686;48.770;9.186;2023-02-02T06:16:39;6.10;99.90
47921;DHT22;33686;48.770;9.186;2023-02-02T06:19:04;6.10;99.90
47921;DHT22;33686;48.770;9.186;2023-02-02T06:21:30;6.10;99.90
47921;DHT22;33686;48.770;9.186;2023-02-02T06:23:56;6.10;99.90
47921;DHT22;33686;48.770;9.186;2023-02-02T06:26:21;6.10;99.90
47921;DHT22;33686;48.770;9.186;2023-02-02T06:28:48;6.10;99.90
47921;DHT22;33686;48.770;9.186;2023-02-02T06:31:13;6.10;99.90
47921;DHT22;33686;48.770;9.186;2023-02-02T06:33:46;6.20;99.90
47921;DHT22;33686;48.770;9.186;2023-02-02T06:36:12;6.20;99.90
47921;DHT22;33686;48.770;9.186;2023-02-02T06:38:38;6.20;99.90
47921;DHT22;33686;48.770;9.186;2023-02-02T06:41:03;6.20;99.90
47921;DHT22;33686;48.770;9.186;2023-02-02T06:43:29;6.20;99.90
47921;DHT22;33686;48.770;9.186;2023-02-02T06:45:55;6.20;99.90
47921;DHT22;33686;48.770;9.186;2023-02-02T06:48:21;6.30;99.90
47921;DHT22;33686;48.770;9.186;2023-02-02T06:50:47;6.20;99.90
47921;DHT22;33686;48.770;9.186;2023-02-02T06:53:12;6.30;99.90
47921;DHT22;33686;48.770;9.186;2023-02-02T06:55:38;6.20;99.90
47921;DHT22;33686;48.770;9.186;2023-02-02T06:58:03;6.30;99.90
47921;DHT22;33686;48.770;9.186;2023-02-02T07:00:29;6.30;99.90
47921;DHT22;33686;48.770;9.186;2023-02-02T07:02:55;6.30;99.90
47921;DHT22;33686;48.770;9.186;2023-02-02T07:05:20;6.40;99.90
47921;DHT22;33686;48.770;9.186;2023-02-02T07:07:50;6.40;99.90
47921;DHT22;33686;48.770;9.186;2023-02-02T07:10:16;6.30;99.90
47921;DHT22;33686;48.770;9.186;2023-02-02T07:12:43;6.40;99.90
47921;DHT22;33686;48.770;9.186;2023-02-02T07:15:08;6.40;99.90
47921;DHT22;33686;48.770;9.186;2023-02-02T07:17:34;6.40;99.90
47921;DHT22;33686;48.770;9.186;2023-02-02T07:19:59;6.40;99.90
47921;DHT22;33686;48.770;9.186;2023-02-02T07:22:25;6.40;99.90
47921;DHT22;33686;48.770;9.186;2023-02-02T07:24:51;6.40;99.90
47921;DHT22;33686;48.770;9.186;2023-02-02T07:27:16;6.40;99.90
47921;DHT22;33686;48.770;9.186;2023-02-02T07:29:42;6.40;99.90
47921;DHT22;33686;48.770;9.186;2023-02-02T07:32:07;6.40;99.90
47921;DHT22;33686;48.770;9.186;2023-02-02T07:34:36;6.40;99.90
47921;DHT22;33686;48.770;9.186;2023-02-02T07:37:02;6.50;99.90
47921;DHT22;33686;48.770;9.186;2023-02-02T07:39:27;6.50;99.90
47921;DHT22;33686;48.770;9.186;2023-02-02T07:41:53;6.40;99.90
47921;DHT22;33686;48.770;9.186;2023-02-02T07:44:29;6.40;99.90
47921;DHT22;33686;48.770;9.186;2023-02-02T07:46:54;6.40;99.90
47921;DHT22;33686;48.770;9.186;2023-02-02T07:49:20;6.40;99.90
47921;DHT22;33686;48.770;9.186;2023-02-02T07:51:45;6.40;99.90
47921;DHT22;33686;48.770;9.186;2023-02-02T07:54:13;6.40;99.90
47921;DHT22;33686;48.770;9.186;2023-02-02T07:56:39;6.40;99.90
47921;DHT22;33686;48.770;9.186;2023-02-02T07:59:04;6.40;99.90
47921;DHT22;33686;48.770;9.186;2023-02-02T08:01:30;6.40;99.90
47921;DHT22;33686;48.770;9.186;2023-02-02T08:03:57;6.40;99.90
47921;DHT22;33686;48.770;9.186;2023-02-02T08:06:31;6.50;99.90
47921;DHT22;33686;48.770;9.186;2023-02-02T08:08:58;6.50;99.90
47921;DHT22;33686;48.770;9.186;2023-02-02T08:11:24;6.50;99.90
47921;DHT22;33686;48.770;9.186;2023-02-02T08:13:50;6.50;99.90
47921;DHT22;33686;48.770;9.186;2023-02-02T08:16:16;6.50;99.90
47921;DHT22;33686;48.770;9.186;2023-02-02T08:18:42;6.60;99.90
47921;DHT22;33686;48.770;9.186;2023-02-02T08:21:08;6.60;99.90
47921;DHT22;33686;48.770;9.186;2023-02-02T08:23:34;6.60;99.90
47921;DHT22;33686;48.770;9.186;2023-02-02T08:26:04;6.70;99.90
47921;DHT22;33686;48.770;9.186;2023-02-02T08:28:30;6.70;99.90
47921;DHT22;33686;48.770;9.186;2023-02-02T08:30:55;6.70;99.90
47921;DHT22;33686;48.770;9.186;2023-02-02T08:33:21;6.80;99.90
47921;DHT22;33686;48.770;9.186;2023-02-02T08:35:46;6.80;99.90
47921;DHT22;33686;48.770;9.186;2023-02-02T08:38:12;6.80;99.90
47921;DHT22;33686;48.770;9.186;2023-02-02T08:40:37;6.80;99.90
47921;DHT22;33686;48.770;9.186;2023-02-02T08:43:03;6.90;99.90
47921;DHT22;33686;48.770;9.186;2023-02-02T08:45:29;6.80;99.90
47921;DHT22;33686;48.770;9.186;2023-02-02T08:47:55;6.90;99.90
47921;DHT22;33686;48.770;9.186;2023-02-02T08:50:20;6.90;99.90
47921;DHT22;33686;48.770;9.186;2023-02-02T08:52:46;6.90;99.90
47921;DHT22;33686;48.770;9.186;2023-02-02T08:55:11;6.90;99.90
47921;DHT22;33686;48.770;9.186;2023-02-02T08:57:37;6.90;99.90
47921;DHT22;33686;48.770;9.186;2023-02-02T09:00:03;7.00;99.90
47921;DHT22;33686;48.770;9.186;2023-02-02T09:02:28;6.90;99.90
47921;DHT22;33686;48.770;9.186;2023-02-02T09:04:54;7.00;99.90
47921;DHT22;33686;48.770;9.186;2023-02-02T09:07:19;6.90;99.90
47921;DHT22;33686;48.770;9.186;2023-02-02T09:09:45;7.00;99.90
47921;DHT22;33686;48.770;9.186;2023-02-02T09:12:10;7.00;99.90
47921;DHT22;33686;48.770;9.186;2023-02-02T09:14:36;7.00;99.90
47921;DHT22;33686;48.770;9.186;2023-02-02T09:17:02;7.00;99.90
47921;DHT22;33686;48.770;9.186;2023-02-02T09:19:27;7.00;99.90
47921;DHT22;33686;48.770;9.186;2023-02-02T09:21:53;7.00;99.90
47921;DHT22;33686;48.770;9.186;2023-02-02T09:24:18;7.10;99.90
47921;DHT22;33686;48.770;9.186;2023-02-02T09:26:44;7.00;99.90
47921;DHT22;33686;48.770;9.186;2023-02-02T09:29:14;7.10;99.90
47921;DHT22;33686;48.770;9.186;2023-02-02T09:31:42;7.00;99.90
47921;DHT22;33686;48.770;9.186;2023-02-02T09:34:10;7.10;99.90
47921;DHT22;33686;48.770;9.186;2023-02-02T09:36:36;7.10;99.90
47921;DHT22;33686;48.770;9.186;2023-02-02T09:39:02;7.10;99.90
47921;DHT22;33686;48.770;9.186;2023-02-02T09:44:25;7.10;99.90
47921;DHT22;33686;48.770;9.186;2023-02-02T09:49:34;7.10;99.90
47921;DHT22;33686;48.770;9.186;2023-02-02T09:52:02;7.10;99.90
47921;DHT22;33686;48.770;9.186;2023-02-02T09:54:38;7.10;99.90
47921;DHT22;33686;48.770;9.186;2023-02-02T09:57:09;7.20;99.90
47921;DHT22;33686;48.770;9.186;2023-02-02T09:59:38;7.10;99.90
47921;DHT22;33686;48.770;9.186;2023-02-02T10:02:06;7.10;99.90
47921;DHT22;33686;48.770;9.186;2023-02-02T10:04:38;7.10;99.90
47921;DHT22;33686;48.770;9.186;2023-02-02T10:07:15;7.00;99.90
47921;DHT22;33686;48.770;9.186;2023-02-02T10:09:45;7.00;99.90
47921;DHT22;33686;48.770;9.186;2023-02-02T10:14:42;7.00;99.90
47921;DHT22;33686;48.770;9.186;2023-02-02T10:19:42;7.00;99.90
47921;DHT22;33686;48.770;9.186;2023-02-02T10:22:14;7.10;99.90
47921;DHT22;33686;48.770;9.186;2023-02-02T10:24:42;7.10;99.90
47921;DHT22;33686;48.770;9.186;2023-02-02T10:27:10;7.10;99.90
47921;DHT22;33686;48.770;9.186;2023-02-02T10:29:42;7.10;99.90
47921;DHT22;33686;48.770;9.186;2023-02-02T10:38:00;7.00;99.90
47921;DHT22;33686;48.770;9.186;2023-02-02T10:43:14;7.10;99.90
47921;DHT22;33686;48.770;9.186;2023-02-02T10:46:00;7.10;99.90
47921;DHT22;33686;48.770;9.186;2023-02-02T10:48:29;7.10;99.90
47921;DHT22;33686;48.770;9.186;2023-02-02T10:50:59;7.10;99.90
47921;DHT22;33686;48.770;9.186;2023-02-02T10:53:27;7.00;99.90
47921;DHT22;33686;48.770;9.186;2023-02-02T10:56:00;7.10;99.90
47921;DHT22;33686;48.770;9.186;2023-02-02T10:58:30;7.10;99.90
47921;DHT22;33686;48.770;9.186;2023-02-02T11:00:57;7.20;99.90
47921;DHT22;33686;48.770;9.186;2023-02-02T11:03:29;7.20;99.90
47921;DHT22;33686;48.770;9.186;2023-02-02T11:05:55;7.20;99.90
47921;DHT22;33686;48.770;9.186;2023-02-02T11:08:41;7.20;99.90
47921;DHT22;33686;48.770;9.186;2023-02-02T11:11:09;7.10;99.90
47921;DHT22;33686;48.770;9.186;2023-02-02T11:13:40;7.20;99.90
47921;DHT22;33686;48.770;9.186;2023-02-02T11:18:43;7.20;99.90
47921;DHT22;33686;48.770;9.186;2023-02-02T11:32:16;7.40;99.90
47921;DHT22;33686;48.770;9.186;2023-02-02T11:34:42;7.40;99.90
47921;DHT22;33686;48.770;9.186;2023-02-02T11:39:37;7.50;99.90
47921;DHT22;33686;48.770;9.186;2023-02-02T11:42:04;7.50;99.90
47921;DHT22;33686;48.770;9.186;2023-02-02T11:44:31;7.50;99.90
47921;DHT22;33686;48.770;9.186;2023-02-02T11:46:59;7.60;99.90
47921;DHT22;33686;48.770;9.186;2023-02-02T11:49:25;7.50;99.90
47921;DHT22;33686;48.770;9.186;2023-02-02T11:51:58;7.40;99.90
47921;DHT22;33686;48.770;9.186;2023-02-02T11:54:28;7.40;99.90
47921;DHT22;33686;48.770;9.186;2023-02-02T11:56:55;7.40;99.90
47921;DHT22;33686;48.770;9.186;2023-02-02T11:59:29;7.40;99.90
47921;DHT22;33686;48.770;9.186;2023-02-02T12:04:39;7.40;99.90
47921;DHT22;33686;48.770;9.186;2023-02-02T12:07:18;7.40;99.90
47921;DHT22;33686;48.770;9.186;2023-02-02T12:09:46;7.40;99.90
47921;DHT22;33686;48.770;9.186;2023-02-02T12:17:36;7.30;99.90
47921;DHT22;33686;48.770;9.186;2023-02-02T12:20:18;7.30;99.90
47921;DHT22;33686;48.770;9.186;2023-02-02T12:27:44;7.30;99.90
47921;DHT22;33686;48.770;9.186;2023-02-02T12:35:15;7.10;99.90
47921;DHT22;33686;48.770;9.186;2023-02-02T12:45:31;7.10;99.90
47921;DHT22;33686;48.770;9.186;2023-02-02T12:50:50;7.00;99.90
47921;DHT22;33686;48.770;9.186;2023-02-02T12:56:09;6.90;99.90
47921;DHT22;33686;48.770;9.186;2023-02-02T13:01:17;6.70;99.90
47921;DHT22;33686;48.770;9.186;2023-02-02T13:03:52;6.70;99.90
47921;DHT22;33686;48.770;9.186;2023-02-02T13:09:50;6.70;99.90
47921;DHT22;33686;48.770;9.186;2023-02-02T13:11:55;6.70;99.90
47921;DHT22;33686;48.770;9.186;2023-02-02T13:14:23;6.60;99.90
47921;DHT22;33686;48.770;9.186;2023-02-02T13:16:50;6.70;99.90
47921;DHT22;33686;48.770;9.186;2023-02-02T13:19:21;6.60;99.90
47921;DHT22;33686;48.770;9.186;2023-02-02T13:21:50;6.60;99.90
47921;DHT22;33686;48.770;9.186;2023-02-02T13:24:18;6.60;99.90
47921;DHT22;33686;48.770;9.186;2023-02-02T13:26:47;6.60;99.90
47921;DHT22;33686;48.770;9.186;2023-02-02T13:29:31;6.60;99.90
47921;DHT22;33686;48.770;9.186;2023-02-02T13:39:50;6.70;99.90
47921;DHT22;33686;48.770;9.186;2023-02-02T13:42:24;6.70;99.90
47921;DHT22;33686;48.770;9.186;2023-02-02T13:44:54;6.70;99.90
47921;DHT22;33686;48.770;9.186;2023-02-02T13:47:23;6.80;99.90
47921;DHT22;33686;48.770;9.186;2023-02-02T13:49:54;6.80;99.90
47921;DHT22;33686;48.770;9.186;2023-02-02T13:54:55;6.80;99.90
47921;DHT22;33686;48.770;9.186;2023-02-02T14:02:54;6.90;99.90
47921;DHT22;33686;48.770;9.186;2023-02-02T14:10:41;6.90;99.90
47921;DHT22;33686;48.770;9.186;2023-02-02T14:13:17;6.90;99.90
47921;DHT22;33686;48.770;9.186;2023-02-02T14:16:03;6.90;99.90
47921;DHT22;33686;48.770;9.186;2023-02-02T14:26:41;7.10;99.90
47921;DHT22;33686;48.770;9.186;2023-02-02T14:31:54;7.10;99.90
47921;DHT22;33686;48.770;9.186;2023-02-02T14:34:27;7.20;99.90
47921;DHT22;33686;48.770;9.186;2023-02-02T14:39:46;7.10;99.90
47921;DHT22;33686;48.770;9.186;2023-02-02T14:42:16;7.10;99.90
47921;DHT22;33686;48.770;9.186;2023-02-02T14:50:29;7.10;99.90
47921;DHT22;33686;48.770;9.186;2023-02-02T14:53:06;7.10;99.90
47921;DHT22;33686;48.770;9.186;2023-02-02T14:55:57;7.10;99.90
47921;DHT22;33686;48.770;9.186;2023-02-02T15:00:55;7.10;99.90
47921;DHT22;33686;48.770;9.186;2023-02-02T15:03:36;7.10;99.90
47921;DHT22;33686;48.770;9.186;2023-02-02T15:15:05;7.20;99.90
47921;DHT22;33686;48.770;9.186;2023-02-02T15:26:06;7.10;99.90
47921;DHT22;33686;48.770;9.186;2023-02-02T15:28:43;7.10;99.90
47921;DHT22;33686;48.770;9.186;2023-02-02T15:33:52;7.10;99.90
47921;DHT22;33686;48.770;9.186;2023-02-02T15:36:23;7.10;99.90
47921;DHT22;33686;48.770;9.186;2023-02-02T15:38:52;7.10;99.90
47921;DHT22;33686;48.770;9.186;2023-02-02T15:43:48;7.00;99.90
47921;DHT22;33686;48.770;9.186;2023-02-02T15:46:15;7.00;99.90
47921;DHT22;33686;48.770;9.186;2023-02-02T15:51:32;7.00;99.90
47921;DHT22;33686;48.770;9.186;2023-02-02T15:53:58;7.00;99.90
47921;DHT22;33686;48.770;9.186;2023-02-02T15:58:53;6.90;99.90
47921;DHT22;33686;48.770;9.186;2023-02-02T16:01:20;6.90;99.90
47921;DHT22;33686;48.770;9.186;2023-02-02T16:06:23;7.00;99.90
47921;DHT22;33686;48.770;9.186;2023-02-02T16:08:49;7.00;99.90
47921;DHT22;33686;48.770;9.186;2023-02-02T16:11:16;7.00;99.90
47921;DHT22;33686;48.770;9.186;2023-02-02T16:13:45;6.90;99.90
47921;DHT22;33686;48.770;9.186;2023-02-02T16:16:25;7.00;99.90
47921;DHT22;33686;48.770;9.186;2023-02-02T16:19:00;7.00;99.90
47921;DHT22;33686;48.770;9.186;2023-02-02T16:21:27;7.00;99.90
47921;DHT22;33686;48.770;9.186;2023-02-02T16:23:52;7.00;99.90
47921;DHT22;33686;48.770;9.186;2023-02-02T16:26:18;7.10;99.90
47921;DHT22;33686;48.770;9.186;2023-02-02T16:28:46;7.00;99.90
47921;DHT22;33686;48.770;9.186;2023-02-02T16:31:12;7.00;99.90
47921;DHT22;33686;48.770;9.186;2023-02-02T16:33:42;7.00;99.90
47921;DHT22;33686;48.770;9.186;2023-02-02T16:36:21;7.00;99.90
47921;DHT22;33686;48.770;9.186;2023-02-02T16:38:47;7.00;99.90
47921;DHT22;33686;48.770;9.186;2023-02-02T16:41:31;7.00;99.90
47921;DHT22;33686;48.770;9.186;2023-02-02T16:46:45;7.10;99.90
47921;DHT22;33686;48.770;9.186;2023-02-02T16:49:16;7.00;99.90
47921;DHT22;33686;48.770;9.186;2023-02-02T16:51:42;7.00;99.90
47921;DHT22;33686;48.770;9.186;2023-02-02T16:56:34;7.00;99.90
47921;DHT22;33686;48.770;9.186;2023-02-02T16:59:02;7.00;99.90
47921;DHT22;33686;48.770;9.186;2023-02-02T17:01:38;7.00;99.90
47921;DHT22;33686;48.770;9.186;2023-02-02T17:04:05;7.00;99.90
47921;DHT22;33686;48.770;9.186;2023-02-02T17:06:32;6.90;99.90
47921;DHT22;33686;48.770;9.186;2023-02-02T17:11:56;7.00;99.90
47921;DHT22;33686;48.770;9.186;2023-02-02T17:14:26;7.00;99.90
47921;DHT22;33686;48.770;9.186;2023-02-02T17:16:52;7.00;99.90
47921;DHT22;33686;48.770;9.186;2023-02-02T17:19:17;7.00;99.90
47921;DHT22;33686;48.770;9.186;2023-02-02T17:21:43;7.00;99.90
47921;DHT22;33686;48.770;9.186;2023-02-02T17:24:08;6.90;99.90
47921;DHT22;33686;48.770;9.186;2023-02-02T17:26:35;6.90;99.90
47921;DHT22;33686;48.770;9.186;2023-02-02T17:29:00;7.00;99.90
47921;DHT22;33686;48.770;9.186;2023-02-02T17:31:29;6.90;99.90
47921;DHT22;33686;48.770;9.186;2023-02-02T17:33:54;6.90;99.90
47921;DHT22;33686;48.770;9.186;2023-02-02T17:36:20;6.90;99.90
47921;DHT22;33686;48.770;9.186;2023-02-02T17:38:46;6.90;99.90
47921;DHT22;33686;48.770;9.186;2023-02-02T17:41:11;6.90;99.90
47921;DHT22;33686;48.770;9.186;2023-02-02T17:43:38;6.90;99.90
47921;DHT22;33686;48.770;9.186;2023-02-02T17:46:04;6.80;99.90
47921;DHT22;33686;48.770;9.186;2023-02-02T17:48:29;6.80;99.90
47921;DHT22;33686;48.770;9.186;2023-02-02T17:50:55;6.80;99.90
47921;DHT22;33686;48.770;9.186;2023-02-02T17:53:21;6.80;99.90
47921;DHT22;33686;48.770;9.186;2023-02-02T17:55:47;6.80;99.90
47921;DHT22;33686;48.770;9.186;2023-02-02T17:58:14;6.70;99.90
47921;DHT22;33686;48.770;9.186;2023-02-02T18:00:42;6.70;99.90
47921;DHT22;33686;48.770;9.186;2023-02-02T18:05:33;6.70;99.90
47921;DHT22;33686;48.770;9.186;2023-02-02T18:07:59;6.70;99.90
47921;DHT22;33686;48.770;9.186;2023-02-02T18:10:24;6.70;99.90
47921;DHT22;33686;48.770;9.186;2023-02-02T18:12:51;6.70;99.90
47921;DHT22;33686;48.770;9.186;2023-02-02T18:15:16;6.70;99.90
47921;DHT22;33686;48.770;9.186;2023-02-02T18:17:42;6.70;99.90
47921;DHT22;33686;48.770;9.186;2023-02-02T18:20:08;6.70;99.90
47921;DHT22;33686;48.770;9.186;2023-02-02T18:22:34;6.70;99.90
47921;DHT22;33686;48.770;9.186;2023-02-02T18:24:59;6.70;99.90
47921;DHT22;33686;48.770;9.186;2023-02-02T18:27:27;6.70;99.90
47921;DHT22;33686;48.770;9.186;2023-02-02T18:29:52;6.70;99.90
47921;DHT22;33686;48.770;9.186;2023-02-02T18:32:18;6.70;99.90
47921;DHT22;33686;48.770;9.186;2023-02-02T18:34:44;6.70;99.90
47921;DHT22;33686;48.770;9.186;2023-02-02T18:37:09;6.70;99.90
47921;DHT22;33686;48.770;9.186;2023-02-02T18:39:35;6.70;99.90
47921;DHT22;33686;48.770;9.186;2023-02-02T18:42:01;6.70;99.90
47921;DHT22;33686;48.770;9.186;2023-02-02T18:44:27;6.70;99.90
47921;DHT22;33686;48.770;9.186;2023-02-02T18:46:52;6.70;99.90
47921;DHT22;33686;48.770;9.186;2023-02-02T18:49:18;6.70;99.90
47921;DHT22;33686;48.770;9.186;2023-02-02T18:51:43;6.70;99.90
47921;DHT22;33686;48.770;9.186;2023-02-02T18:54:10;6.70;99.90
47921;DHT22;33686;48.770;9.186;2023-02-02T18:56:36;6.60;99.90
47921;DHT22;33686;48.770;9.186;2023-02-02T18:59:01;6.60;99.90
47921;DHT22;33686;48.770;9.186;2023-02-02T19:01:27;6.60;99.90
47921;DHT22;33686;48.770;9.186;2023-02-02T19:03:53;6.60;99.90
47921;DHT22;33686;48.770;9.186;2023-02-02T19:06:19;6.60;99.90
47921;DHT22;33686;48.770;9.186;2023-02-02T19:09:04;6.70;99.90
47921;DHT22;33686;48.770;9.186;2023-02-02T19:11:32;6.60;99.90
47921;DHT22;33686;48.770;9.186;2023-02-02T19:13:58;6.60;99.90
47921;DHT22;33686;48.770;9.186;2023-02-02T19:16:25;6.70;99.90
47921;DHT22;33686;48.770;9.186;2023-02-02T19:18:52;6.70;99.90
47921;DHT22;33686;48.770;9.186;2023-02-02T19:21:19;6.60;99.90
47921;DHT22;33686;48.770;9.186;2023-02-02T19:23:45;6.60;99.90
47921;DHT22;33686;48.770;9.186;2023-02-02T19:26:21;6.70;99.90
47921;DHT22;33686;48.770;9.186;2023-02-02T19:28:47;6.60;99.90
47921;DHT22;33686;48.770;9.186;2023-02-02T19:31:13;6.60;99.90
47921;DHT22;33686;48.770;9.186;2023-02-02T19:33:46;6.60;99.90
47921;DHT22;33686;48.770;9.186;2023-02-02T19:36:18;6.60;99.90
47921;DHT22;33686;48.770;9.186;2023-02-02T19:38:45;6.60;99.90
47921;DHT22;33686;48.770;9.186;2023-02-02T19:41:20;6.60;99.90
47921;DHT22;33686;48.770;9.186;2023-02-02T19:43:47;6.60;99.90
47921;DHT22;33686;48.770;9.186;2023-02-02T19:46:13;6.60;99.90
47921;DHT22;33686;48.770;9.186;2023-02-02T19:48:40;6.60;99.90
47921;DHT22;33686;48.770;9.186;2023-02-02T19:51:22;6.60;99.90
47921;DHT22;33686;48.770;9.186;2023-02-02T19:53:50;6.60;99.90
47921;DHT22;33686;48.770;9.186;2023-02-02T19:56:22;6.60;99.90
47921;DHT22;33686;48.770;9.186;2023-02-02T19:58:48;6.60;99.90
47921;DHT22;33686;48.770;9.186;2023-02-02T20:01:16;6.60;99.90
47921;DHT22;33686;48.770;9.186;2023-02-02T20:03:43;6.60;99.90
47921;DHT22;33686;48.770;9.186;2023-02-02T20:06:11;6.60;99.90
47921;DHT22;33686;48.770;9.186;2023-02-02T20:08:38;6.50;99.90
47921;DHT22;33686;48.770;9.186;2023-02-02T20:13:57;6.50;99.90
47921;DHT22;33686;48.770;9.186;2023-02-02T20:16:23;6.50;99.90
47921;DHT22;33686;48.770;9.186;2023-02-02T20:18:52;6.50;99.90
47921;DHT22;33686;48.770;9.186;2023-02-02T20:21:22;6.40;99.90
47921;DHT22;33686;48.770;9.186;2023-02-02T20:23:49;6.50;99.90
47921;DHT22;33686;48.770;9.186;2023-02-02T20:28:42;6.40;99.90
47921;DHT22;33686;48.770;9.186;2023-02-02T20:31:10;6.40;99.90
47921;DHT22;33686;48.770;9.186;2023-02-02T20:33:38;6.40;99.90
47921;DHT22;33686;48.770;9.186;2023-02-02T20:36:14;6.40;99.90
47921;DHT22;33686;48.770;9.186;2023-02-02T20:38:44;6.40;99.90
47921;DHT22;33686;48.770;9.186;2023-02-02T20:41:10;6.40;99.90
47921;DHT22;33686;48.770;9.186;2023-02-02T20:43:35;6.40;99.90
47921;DHT22;33686;48.770;9.186;2023-02-02T20:46:01;6.30;99.90
47921;DHT22;33686;48.770;9.186;2023-02-02T20:48:26;6.30;99.90
47921;DHT22;33686;48.770;9.186;2023-02-02T20:50:53;6.20;99.90
47921;DHT22;33686;48.770;9.186;2023-02-02T20:53:19;6.10;99.90
47921;DHT22;33686;48.770;9.186;2023-02-02T20:55:44;6.10;99.90
47921;DHT22;33686;48.770;9.186;2023-02-02T20:58:10;6.10;99.90
47921;DHT22;33686;48.770;9.186;2023-02-02T21:00:36;6.10;99.90
47921;DHT22;33686;48.770;9.186;2023-02-02T21:03:02;6.00;99.90
47921;DHT22;33686;48.770;9.186;2023-02-02T21:05:28;6.00;99.90
47921;DHT22;33686;48.770;9.186;2023-02-02T21:07:54;6.00;99.90
47921;DHT22;33686;48.770;9.186;2023-02-02T21:10:21;6.00;99.90
47921;DHT22;33686;48.770;9.186;2023-02-02T21:12:47;6.00;99.90
47921;DHT22;33686;48.770;9.186;2023-02-02T21:15:12;6.00;99.90
47921;DHT22;33686;48.770;9.186;2023-02-02T21:17:38;6.00;99.90
47921;DHT22;33686;48.770;9.186;2023-02-02T21:20:05;6.00;99.90
47921;DHT22;33686;48.770;9.186;2023-02-02T21:22:30;6.00;99.90
47921;DHT22;33686;48.770;9.186;2023-02-02T21:24:56;6.00;99.90
47921;DHT22;33686;48.770;9.186;2023-02-02T21:27:21;6.00;99.90
47921;DHT22;33686;48.770;9.186;2023-02-02T21:29:47;6.00;99.90
47921;DHT22;33686;48.770;9.186;2023-02-02T21:32:12;6.00;99.90
47921;DHT22;33686;48.770;9.186;2023-02-02T21:34:38;6.00;99.90
47921;DHT22;33686;48.770;9.186;2023-02-02T21:37:08;6.00;99.90
47921;DHT22;33686;48.770;9.186;2023-02-02T21:39:35;6.00;99.90
47921;DHT22;33686;48.770;9.186;2023-02-02T21:44:33;6.00;99.90
47921;DHT22;33686;48.770;9.186;2023-02-02T21:46:59;6.00;99.90
47921;DHT22;33686;48.770;9.186;2023-02-02T21:49:26;6.00;99.90
47921;DHT22;33686;48.770;9.186;2023-02-02T21:51:56;6.00;99.90
47921;DHT22;33686;48.770;9.186;2023-02-02T21:54:27;6.00;99.90
47921;DHT22;33686;48.770;9.186;2023-02-02T21:56:53;6.00;99.90
47921;DHT22;33686;48.770;9.186;2023-02-02T21:59:20;6.00;99.90
47921;DHT22;33686;48.770;9.186;2023-02-02T22:01:46;6.00;99.90
47921;DHT22;33686;48.770;9.186;2023-02-02T22:06:45;6.00;99.90
47921;DHT22;33686;48.770;9.186;2023-02-02T22:09:13;6.00;99.90
47921;DHT22;33686;48.770;9.186;2023-02-02T22:11:40;6.00;99.90
47921;DHT22;33686;48.770;9.186;2023-02-02T22:14:20;6.00;99.90
47921;DHT22;33686;48.770;9.186;2023-02-02T22:16:56;6.00;99.90
47921;DHT22;33686;48.770;9.186;2023-02-02T22:19:36;6.00;99.90
47921;DHT22;33686;48.770;9.186;2023-02-02T22:22:09;6.00;99.90
47921;DHT22;33686;48.770;9.186;2023-02-02T22:24:35;6.10;99.90
47921;DHT22;33686;48.770;9.186;2023-02-02T22:27:01;6.00;99.90
47921;DHT22;33686;48.770;9.186;2023-02-02T22:29:27;6.10;99.90
47921;DHT22;33686;48.770;9.186;2023-02-02T22:31:53;6.10;99.90
47921;DHT22;33686;48.770;9.186;2023-02-02T22:34:19;6.10;99.90
47921;DHT22;33686;48.770;9.186;2023-02-02T22:36:44;6.10;99.90
47921;DHT22;33686;48.770;9.186;2023-02-02T22:39:10;6.10;99.90
47921;DHT22;33686;48.770;9.186;2023-02-02T22:41:35;6.10;99.90
47921;DHT22;33686;48.770;9.186;2023-02-02T22:44:01;6.10;99.90
47921;DHT22;33686;48.770;9.186;2023-02-02T22:46:26;6.10;99.90
47921;DHT22;33686;48.770;9.186;2023-02-02T22:48:52;6.10;99.90
47921;DHT22;33686;48.770;9.186;2023-02-02T22:51:17;6.10;99.90
47921;DHT22;33686;48.770;9.186;2023-02-02T22:53:43;6.10;99.90
47921;DHT22;33686;48.770;9.186;2023-02-02T22:56:09;6.10;99.90
47921;DHT22;33686;48.770;9.186;2023-02-02T22:58:34;6.10;99.90
